Time;durP1;ratioP1;P1;durP2;ratioP2;P2;SDS_P1;SDS_P2;PMS_P1;PMS_P2;Temp;Humidity;BMP_temperature;BMP_pressure;BME280_temperature;BME280_humidity;BME280_pressure;Samples;Min_cycle;Max_cycle;Signal;HPM_P1;HPM_P2
2021/04/29 15:52:49;;;;;;;7.72;4.00;;;;;;;23.35;45.41;98255.31;5084832;27;20412;-59
2021/04/29 15:55:15;;;;;;;4.97;3.80;;;;;;;22.42;48.19;98264.19;5081079;28;20043;-59
2021/04/29 15:57:41;;;;;;;6.60;3.72;;;;;;;21.53;50.02;98270.47;5082580;28;20601;-60
2021/04/29 16:00:09;;;;;;;7.00;4.30;;;;;;;20.95;51.87;98271.44;5079191;28;20048;-59
2021/04/29 16:02:35;;;;;;;;;;;;;;;20.46;53.64;98268.78;4871288;27;70840;-56
2021/04/29 16:05:01;;;;;;;6.68;4.00;;;;;;;20.07;54.61;98269.94;4990514;28;19926;-57
2021/04/29 16:07:26;;;;;;;6.55;3.72;;;;;;;19.72;55.81;98273.38;4995757;28;20061;-57
2021/04/29 16:09:53;;;;;;;6.40;3.97;;;;;;;19.45;56.62;98273.47;4998476;28;20065;-60
2021/04/29 16:12:19;;;;;;;5.85;3.83;;;;;;;19.22;57.23;98269.72;4999533;28;20046;-60
2021/04/29 16:14:47;;;;;;;6.10;3.75;;;;;;;19.03;58.01;98276.41;4999457;28;20128;-57
2021/04/29 16:17:13;;;;;;;9.48;4.40;;;;;;;18.91;58.42;98276.38;4995302;28;20892;-56
2021/04/29 16:19:39;;;;;;;9.75;4.18;;;;;;;18.80;58.70;98287.88;4998147;28;20137;-59
2021/04/29 16:22:05;;;;;;;8.48;4.10;;;;;;;18.72;59.16;98287.53;4996411;28;20100;-59
2021/04/29 16:24:30;;;;;;;9.90;4.18;;;;;;;18.65;59.30;98298.72;4997214;28;20080;-57
2021/04/29 16:26:57;;;;;;;7.15;3.80;;;;;;;18.58;59.62;98285.75;4993897;28;20076;-60
2021/04/29 16:29:26;;;;;;;9.50;4.20;;;;;;;18.52;59.68;98287.06;4997638;28;20116;-60
2021/04/29 16:31:52;;;;;;;5.75;3.58;;;;;;;18.47;59.81;98287.34;4992960;28;20096;-59
2021/04/29 16:34:20;;;;;;;5.55;3.92;;;;;;;18.46;59.84;98287.47;4993708;28;20055;-60
2021/04/29 16:36:45;;;;;;;8.00;3.90;;;;;;;18.45;59.94;98281.22;4998758;28;20065;-59
2021/04/29 16:39:11;;;;;;;7.45;3.70;;;;;;;18.43;60.06;98279.56;4998862;28;20054;-59
2021/04/29 16:41:37;;;;;;;6.13;3.60;;;;;;;18.42;60.02;98291.31;4996779;28;20141;-57
2021/04/29 16:44:04;;;;;;;7.20;3.70;;;;;;;18.41;60.14;98292.28;4998166;28;20459;-58
2021/04/29 16:46:30;;;;;;;8.60;4.00;;;;;;;18.40;60.06;98279.78;4998230;28;20050;-59
2021/04/29 16:48:56;;;;;;;8.63;4.05;;;;;;;18.39;60.18;98286.13;5004279;28;20045;-58
2021/04/29 16:51:22;;;;;;;6.15;3.83;;;;;;;18.45;60.18;98288.41;4995792;28;20128;-57
2021/04/29 16:53:48;;;;;;;5.35;3.78;;;;;;;18.43;60.43;98277.78;5001747;28;20105;-57
2021/04/29 16:56:14;;;;;;;7.30;3.42;;;;;;;18.42;60.25;98292.19;5000110;28;20448;-56
2021/04/29 16:58:40;;;;;;;6.35;3.70;;;;;;;18.42;60.12;98302.09;4999797;28;20081;-60
2021/04/29 17:01:07;;;;;;;5.75;3.67;;;;;;;18.39;60.32;98300.47;4995440;28;20057;-56
2021/04/29 17:03:33;;;;;;;5.10;3.47;;;;;;;18.33;60.36;98298.19;4986518;28;20053;-60
2021/04/29 17:05:58;;;;;;;5.38;3.83;;;;;;;18.37;60.42;98304.25;4983112;28;20046;-57
2021/04/29 17:08:24;;;;;;;5.95;3.55;;;;;;;18.36;60.37;98310.56;4988194;28;20165;-58
2021/04/29 17:10:50;;;;;;;9.82;3.60;;;;;;;18.34;60.48;98307.13;4982393;28;20051;-60
2021/04/29 17:13:16;;;;;;;8.55;3.97;;;;;;;18.32;60.56;98309.91;4984882;28;20057;-58
2021/04/29 17:15:42;;;;;;;6.18;3.55;;;;;;;18.33;60.40;98311.66;4982367;28;20699;-57
2021/04/29 17:18:09;;;;;;;6.80;3.50;;;;;;;18.33;60.33;98316.19;4988783;28;20046;-56
2021/04/29 17:20:35;;;;;;;5.78;3.55;;;;;;;18.32;60.26;98312.59;4986608;28;20475;-58
2021/04/29 17:23:04;;;;;;;5.88;3.60;;;;;;;18.33;60.33;98314.34;4987535;28;20042;-58
2021/04/29 17:25:33;;;;;;;8.77;4.22;;;;;;;18.33;60.13;98313.47;4984702;28;20042;-59
2021/04/29 17:28:01;;;;;;;7.68;3.22;;;;;;;18.33;60.49;98316.19;4990567;28;20585;-56
2021/04/29 17:30:27;;;;;;;5.70;3.17;;;;;;;18.32;60.22;98322.50;4982877;28;20374;-58
2021/04/29 17:32:55;;;;;;;6.13;3.63;;;;;;;18.32;60.27;98314.44;4983433;28;20069;-56
2021/04/29 17:35:22;;;;;;;6.27;3.33;;;;;;;18.32;60.13;98319.81;4983927;28;20046;-56
2021/04/29 17:37:48;;;;;;;6.07;3.50;;;;;;;18.31;60.18;98315.41;4982380;28;20909;-58
2021/04/29 17:40:16;;;;;;;6.07;3.47;;;;;;;18.32;60.31;98317.13;4984799;28;20042;-58
2021/04/29 17:42:43;;;;;;;5.47;3.38;;;;;;;18.30;60.03;98311.84;4983016;28;20042;-58
2021/04/29 17:45:09;;;;;;;5.75;3.50;;;;;;;18.30;60.12;98308.28;4983085;28;20046;-60
2021/04/29 17:47:35;;;;;;;6.97;4.10;;;;;;;18.30;60.21;98305.59;4985161;28;20050;-57
2021/04/29 17:50:01;;;;;;;6.00;3.40;;;;;;;18.29;59.98;98315.50;4984459;28;20042;-58
2021/04/29 17:52:28;;;;;;;7.88;3.40;;;;;;;18.30;60.10;98319.03;4984465;28;20087;-58
2021/04/29 17:54:54;;;;;;;5.97;3.47;;;;;;;18.31;60.23;98320.78;4982782;28;20093;-60
2021/04/29 17:57:22;;;;;;;5.50;3.30;;;;;;;18.32;60.02;98319.81;4984723;28;20054;-57
2021/04/29 17:59:48;;;;;;;5.57;3.33;;;;;;;18.31;60.17;98321.66;4978378;28;20046;-58
2021/04/29 18:02:14;;;;;;;8.18;3.90;;;;;;;18.30;60.50;98324.44;4981117;28;20058;-59
2021/04/29 18:04:45;;;;;;;6.40;3.55;;;;;;;18.27;60.43;98318.28;4980976;28;20054;-55
2021/04/29 18:07:11;;;;;;;8.32;3.83;;;;;;;18.27;60.50;98323.66;4982613;28;20738;-57
2021/04/29 18:09:38;;;;;;;6.15;3.40;;;;;;;18.27;60.61;98328.19;4983917;28;20071;-59
2021/04/29 18:12:06;;;;;;;8.68;3.90;;;;;;;18.27;60.53;98328.19;4982165;28;20120;-59
2021/04/29 18:14:33;;;;;;;6.65;3.65;;;;;;;18.26;60.68;98323.78;4979822;28;20050;-58
2021/04/29 18:16:59;;;;;;;6.72;3.80;;;;;;;18.25;60.73;98336.34;4978719;28;20108;-59
2021/04/29 18:19:25;;;;;;;6.85;3.80;;;;;;;18.24;61.16;98337.34;4985633;28;20042;-57
2021/04/29 18:21:51;;;;;;;7.05;3.83;;;;;;;18.23;60.93;98340.97;4986232;28;20061;-58
2021/04/29 18:24:17;;;;;;;6.78;3.92;;;;;;;18.23;61.10;98343.66;4983561;28;20039;-57
2021/04/29 18:26:43;;;;;;;5.65;3.60;;;;;;;18.23;61.03;98348.19;4982906;28;20051;-59
2021/04/29 18:29:09;;;;;;;5.97;4.15;;;;;;;18.22;61.12;98341.97;4982496;28;20050;-59
2021/04/29 18:31:35;;;;;;;7.97;4.00;;;;;;;18.23;60.81;98343.66;4976528;28;20523;-59
2021/04/29 18:34:02;;;;;;;5.78;4.00;;;;;;;18.25;61.11;98344.44;4981478;28;21386;-59
2021/04/29 18:36:30;;;;;;;8.02;4.20;;;;;;;18.27;61.26;98342.50;4984106;28;20053;-58
2021/04/29 18:38:56;;;;;;;11.23;5.05;;;;;;;18.30;61.00;98343.28;4985017;28;20046;-58
2021/04/29 18:41:23;;;;;;;10.25;5.47;;;;;;;18.30;61.24;98349.50;4985376;28;20096;-59
2021/04/29 18:43:49;;;;;;;11.98;6.28;;;;;;;18.31;61.10;98353.94;4985221;28;20065;-59
2021/04/29 18:46:15;;;;;;;11.63;7.07;;;;;;;18.32;61.92;98368.25;4980520;28;20050;-60
2021/04/29 18:48:41;;;;;;;10.63;6.80;;;;;;;18.32;62.57;98376.34;4985613;28;20066;-58
2021/04/29 18:51:07;;;;;;;9.60;6.20;;;;;;;18.31;62.58;98363.84;4982945;28;20107;-59
2021/04/29 18:53:33;;;;;;;13.07;7.25;;;;;;;18.32;62.82;98370.97;4984783;28;20500;-60
2021/04/29 18:55:59;;;;;;;12.20;6.60;;;;;;;18.32;63.05;98360.19;4982416;28;20062;-59
2021/04/29 18:58:25;;;;;;;11.68;7.28;;;;;;;18.34;64.04;98372.56;4977765;28;20065;-59
2021/04/29 19:00:53;;;;;;;13.50;6.93;;;;;;;18.35;63.87;98378.84;4974069;28;20054;-57
2021/04/29 19:03:19;;;;;;;11.70;6.75;;;;;;;18.35;63.83;98373.47;4977114;28;20046;-59
2021/04/29 19:05:44;;;;;;;13.90;6.00;;;;;;;18.35;64.00;98385.09;4980826;28;20128;-59
2021/04/29 19:08:10;;;;;;;9.90;6.05;;;;;;;18.36;63.76;98375.19;4982166;28;20054;-59
2021/04/29 19:10:36;;;;;;;11.45;5.40;;;;;;;18.36;63.53;98367.97;4977627;28;20386;-59
2021/04/29 19:13:02;;;;;;;10.60;5.55;;;;;;;18.37;63.68;98377.78;4986097;28;20161;-58
2021/04/29 19:15:29;;;;;;;8.73;5.18;;;;;;;18.39;63.20;98383.03;4983663;28;20050;-58
2021/04/29 19:17:55;;;;;;;10.15;5.22;;;;;;;18.38;63.60;98386.72;4985566;28;20047;-60
2021/04/29 19:20:23;;;;;;;9.40;5.43;;;;;;;18.38;63.52;98392.09;4987180;28;20136;-58
2021/04/29 19:22:50;;;;;;;8.32;5.30;;;;;;;18.38;63.58;98398.34;4985920;28;20124;-59
2021/04/29 19:25:16;;;;;;;7.63;5.20;;;;;;;18.37;63.42;98399.31;4987735;28;20065;-60
2021/04/29 19:27:42;;;;;;;8.98;4.90;;;;;;;18.37;63.44;98406.53;4990390;28;20043;-59
2021/04/29 19:30:11;;;;;;;6.53;4.82;;;;;;;18.37;63.49;98410.09;4983786;28;20408;-58
2021/04/29 19:34:47;;;;;;;10.02;6.03;;;;;;;17.47;63.60;98408.53;5079071;27;20790;-71
2021/04/29 19:37:12;;;;;;;8.07;5.65;;;;;;;16.94;65.53;98408.09;4923749;28;20036;-72
2021/04/29 19:39:38;;;;;;;10.55;5.57;;;;;;;16.40;67.58;98407.63;4999687;28;110203;-72
2021/04/29 19:42:04;;;;;;;11.18;5.93;;;;;;;16.04;68.95;98422.13;5061587;28;20068;-71
2021/04/29 19:44:30;;;;;;;9.57;5.95;;;;;;;15.67;70.52;98421.41;5056877;28;20064;-71
2021/04/29 19:46:56;;;;;;;7.93;5.57;;;;;;;15.44;71.70;98424.41;5053003;28;20063;-71
2021/04/29 19:49:23;;;;;;;9.77;5.90;;;;;;;15.27;72.25;98422.66;5059615;28;20040;-71
2021/04/29 19:51:52;;;;;;;9.68;5.75;;;;;;;15.15;72.78;98426.81;5059780;28;20375;-71
2021/04/29 19:54:22;;;;;;;9.50;5.75;;;;;;;15.04;73.43;98432.69;5058101;28;20139;-71
2021/04/29 19:56:51;;;;;;;;;;;;;;;14.92;73.85;98428.84;5059147;28;20387;-71
2021/04/29 19:59:16;;;;;;;10.52;5.82;;;;;;;14.87;73.73;98435.34;5058412;28;20741;-71
2021/04/29 20:01:42;;;;;;;10.85;5.97;;;;;;;14.83;74.61;98437.31;5056169;28;20068;-72
2021/04/29 20:04:08;;;;;;;10.80;6.18;;;;;;;14.82;74.32;98438.28;5060505;28;20064;-71
2021/04/29 20:06:34;;;;;;;13.07;6.80;;;;;;;14.82;74.44;98440.94;5058359;28;20148;-70
2021/04/29 20:09:01;;;;;;;12.15;6.63;;;;;;;14.79;74.80;98439.28;5059318;28;20734;-71
2021/04/29 20:11:26;;;;;;;11.10;6.28;;;;;;;14.79;74.60;98443.78;5059480;28;20053;-71
2021/04/29 20:13:52;;;;;;;9.52;6.22;;;;;;;14.75;74.82;98451.09;5058350;28;20762;-71
2021/04/29 20:16:18;;;;;;;10.55;6.10;;;;;;;14.74;74.44;98444.00;5051598;28;20052;-70
2021/04/29 20:18:47;;;;;;;11.55;5.97;;;;;;;14.69;75.14;98450.53;5056132;28;20044;-71
2021/04/29 20:21:13;;;;;;;11.50;6.20;;;;;;;14.67;74.98;98449.72;5054530;28;20055;-71
2021/04/29 20:23:38;;;;;;;12.65;6.47;;;;;;;14.60;75.40;98457.19;5053068;28;20124;-72
2021/04/29 20:26:05;;;;;;;13.23;5.97;;;;;;;14.61;75.34;98450.03;5052364;28;20735;-71
2021/04/29 20:28:31;;;;;;;11.02;6.13;;;;;;;14.61;75.34;98460.72;5053410;28;20656;-71
2021/04/29 20:31:00;;;;;;;9.68;6.10;;;;;;;14.58;75.36;98459.06;5049257;28;20163;-71
2021/04/29 20:33:26;;;;;;;;;;;;;;;14.54;75.75;98466.34;5052115;28;20049;-73
2021/04/29 20:35:54;;;;;;;;;;;;;;;14.51;75.66;98471.84;5050974;28;19936;-73
2021/04/29 20:38:20;;;;;;;10.50;7.03;;;;;;;14.49;75.50;98464.84;5048014;28;19925;-72
2021/04/29 20:40:45;;;;;;;13.63;8.30;;;;;;;14.45;75.94;98473.94;5049789;28;20239;-70
2021/04/29 20:43:12;;;;;;;14.45;7.28;;;;;;;14.43;75.73;98468.66;5051876;28;20060;-70
2021/04/29 20:45:38;;;;;;;9.80;6.85;;;;;;;14.41;76.26;98475.91;5038129;28;20134;-73
2021/04/29 20:48:04;;;;;;;11.07;6.70;;;;;;;14.35;76.32;98474.38;5013611;28;57159;-72
2021/04/29 20:50:30;;;;;;;10.02;6.80;;;;;;;14.36;76.45;98473.44;5038432;28;20165;-71
2021/04/29 20:52:56;;;;;;;11.43;6.88;;;;;;;14.34;76.45;98479.81;5039490;28;20045;-72
2021/04/29 20:55:22;;;;;;;10.82;7.47;;;;;;;14.31;76.57;98478.16;5042565;28;20049;-72
2021/04/29 20:57:47;;;;;;;13.88;6.95;;;;;;;14.31;76.30;98483.50;5042434;28;20122;-71
2021/04/29 21:00:15;;;;;;;12.27;6.57;;;;;;;14.30;76.38;98479.06;5035860;28;20154;-72
2021/04/29 21:02:41;;;;;;;11.98;6.80;;;;;;;14.30;76.62;98483.56;5037795;28;20045;-73
2021/04/29 21:05:08;;;;;;;9.02;6.45;;;;;;;14.32;76.35;98487.91;5040084;28;20812;-73
2021/04/29 21:07:33;;;;;;;11.00;6.40;;;;;;;14.31;76.56;98487.97;5043401;28;20146;-72
2021/04/29 21:09:59;;;;;;;13.10;7.07;;;;;;;14.29;76.57;98495.19;5016354;28;20049;-71
2021/04/29 21:12:25;;;;;;;10.70;6.72;;;;;;;14.25;76.65;98488.25;4975396;28;20059;-73
2021/04/29 21:14:53;;;;;;;12.10;6.90;;;;;;;14.27;76.87;98502.41;5041495;28;20045;-70
2021/04/29 21:17:20;;;;;;;10.85;6.90;;;;;;;14.23;76.88;98507.06;5035215;28;20049;-71
2021/04/29 21:19:46;;;;;;;14.43;6.95;;;;;;;14.23;76.92;98509.72;5056727;28;20045;-71
2021/04/29 21:22:15;;;;;;;10.25;6.75;;;;;;;14.21;76.93;98508.06;5045641;28;20140;-70
2021/04/29 21:24:40;;;;;;;10.73;6.70;;;;;;;14.19;76.99;98510.81;5043834;28;20045;-72
2021/04/29 21:27:06;;;;;;;13.50;7.13;;;;;;;14.15;77.13;98507.41;5045741;28;20059;-71
2021/04/29 21:29:32;;;;;;;10.45;7.20;;;;;;;14.18;77.65;98515.28;5047567;28;20072;-71
2021/04/29 21:31:58;;;;;;;15.95;8.73;;;;;;;14.14;77.67;98521.72;5044846;28;20056;-71
2021/04/29 21:34:25;;;;;;;12.98;7.45;;;;;;;14.14;77.76;98524.41;5048212;28;20125;-72
2021/04/29 21:36:50;;;;;;;14.55;7.65;;;;;;;14.07;78.20;98522.91;5047079;28;20044;-71
2021/04/29 21:39:16;;;;;;;13.25;7.88;;;;;;;14.07;78.64;98522.91;5047716;28;20117;-72
2021/04/29 21:41:42;;;;;;;13.98;8.68;;;;;;;14.04;78.88;98516.84;5046864;28;20051;-71
2021/04/29 21:44:09;;;;;;;14.45;7.90;;;;;;;14.03;78.57;98510.66;5048446;28;20582;-71
2021/04/29 21:46:38;;;;;;;13.65;7.65;;;;;;;14.03;78.30;98509.75;5046806;28;20071;-70
2021/04/29 21:49:04;;;;;;;15.13;7.70;;;;;;;14.04;78.42;98523.06;5045285;28;20055;-71
2021/04/29 21:51:31;;;;;;;15.07;7.85;;;;;;;14.03;78.38;98520.44;5003448;28;20054;-71
2021/04/29 21:53:57;;;;;;;12.80;7.60;;;;;;;14.05;78.21;98516.78;5046695;28;20048;-72
2021/04/29 21:56:22;;;;;;;14.18;7.82;;;;;;;14.05;78.41;98527.50;5046978;28;20048;-70
2021/04/29 21:58:48;;;;;;;13.90;7.60;;;;;;;14.07;78.34;98533.59;5047899;28;20564;-71
2021/04/29 22:01:14;;;;;;;10.40;7.63;;;;;;;14.06;78.57;98531.03;5044028;28;20407;-71
2021/04/29 22:03:40;;;;;;;11.85;7.03;;;;;;;14.05;78.35;98534.63;5032445;28;20048;-72
2021/04/29 22:06:10;;;;;;;11.95;7.18;;;;;;;14.05;78.56;98534.63;5067965;28;20463;-71
2021/04/29 22:08:37;;;;;;;12.75;7.40;;;;;;;14.05;78.36;98531.94;5067585;28;20045;-72
2021/04/29 22:11:04;;;;;;;12.88;6.80;;;;;;;14.04;78.68;98532.91;5067116;28;20072;-72
2021/04/29 22:13:31;;;;;;;11.32;6.43;;;;;;;14.04;78.61;98533.75;5066752;28;20033;-71
2021/04/29 22:15:57;;;;;;;9.63;6.30;;;;;;;14.00;78.76;98532.16;5065233;28;20514;-71
2021/04/29 22:18:23;;;;;;;11.77;6.15;;;;;;;14.00;78.98;98536.63;5066715;28;20047;-71
2021/04/29 22:20:49;;;;;;;11.02;6.40;;;;;;;14.00;78.85;98536.63;5067176;28;20048;-72
2021/04/29 22:23:15;;;;;;;10.70;7.22;;;;;;;14.00;78.98;98540.19;5066196;28;20043;-71
2021/04/29 22:25:44;;;;;;;10.60;7.00;;;;;;;13.91;78.93;98536.09;5067318;28;20131;-70
2021/04/29 22:28:10;;;;;;;13.60;8.00;;;;;;;13.91;78.92;98545.94;5067458;28;20119;-71
2021/04/29 22:30:37;;;;;;;14.13;8.23;;;;;;;13.89;79.35;98539.78;5064844;28;20414;-70
2021/04/29 22:33:04;;;;;;;14.25;7.93;;;;;;;13.87;79.27;98537.19;5010441;28;20097;-71
2021/04/29 22:35:30;;;;;;;13.15;8.13;;;;;;;13.86;79.36;98538.13;5067351;28;20169;-72
2021/04/29 22:37:59;;;;;;;14.48;7.88;;;;;;;13.86;79.10;98539.94;5067450;28;20139;-72
2021/04/29 22:40:25;;;;;;;12.07;7.20;;;;;;;13.84;79.26;98544.47;5067749;28;20119;-71
2021/04/29 22:42:51;;;;;;;12.07;7.85;;;;;;;13.85;79.16;98548.88;5066290;28;20040;-71
2021/04/29 22:45:18;;;;;;;11.73;7.70;;;;;;;13.82;79.34;98547.22;5064949;28;20546;-71
2021/04/29 22:47:46;;;;;;;11.82;7.75;;;;;;;13.82;79.45;98541.88;5065882;28;20041;-70
2021/04/29 22:53:04;;;;;;;15.00;8.15;;;;;;;13.86;79.46;98539.94;5083679;27;20351;-71
2021/04/29 22:55:30;;;;;;;14.23;7.70;;;;;;;13.88;79.53;98549.63;5084202;28;20566;-70
2021/04/29 22:57:56;;;;;;;11.77;7.55;;;;;;;13.91;79.55;98545.94;5084220;28;20079;-71
2021/04/29 23:00:22;;;;;;;11.95;7.50;;;;;;;13.93;79.36;98546.75;5081458;28;20036;-73
2021/04/29 23:02:48;;;;;;;11.10;6.78;;;;;;;13.95;79.15;98556.44;5083470;28;20241;-73
2021/04/29 23:05:15;;;;;;;14.98;7.95;;;;;;;13.94;79.05;98554.69;5083513;28;20044;-71
2021/04/29 23:07:41;;;;;;;10.63;6.50;;;;;;;13.97;78.96;98546.53;5083791;28;20090;-71
2021/04/29 23:10:10;;;;;;;14.90;7.20;;;;;;;14.01;78.74;98557.06;5084163;28;20770;-70
2021/04/29 23:12:35;;;;;;;11.20;7.03;;;;;;;14.04;78.76;98555.16;5082695;28;20131;-71
2021/04/29 23:15:03;;;;;;;14.40;7.43;;;;;;;14.07;78.44;98548.78;5080605;28;20183;-70
2021/04/29 23:17:29;;;;;;;15.98;7.55;;;;;;;14.08;78.62;98548.72;5083370;28;20113;-71
2021/04/29 23:19:54;;;;;;;14.18;7.18;;;;;;;14.09;78.61;98553.13;5082856;28;20489;-70
2021/04/29 23:22:20;;;;;;;14.00;8.30;;;;;;;14.10;78.51;98554.03;5083254;28;20044;-71
2021/04/29 23:24:46;;;;;;;17.10;7.25;;;;;;;14.09;78.68;98550.44;5083210;28;20516;-71
2021/04/29 23:27:13;;;;;;;10.45;7.10;;;;;;;14.08;79.01;98546.06;5083324;28;20044;-71
2021/04/29 23:29:38;;;;;;;15.13;7.03;;;;;;;14.07;78.95;98546.97;5080177;28;20049;-70
2021/04/29 23:32:06;;;;;;;12.85;7.13;;;;;;;14.08;78.90;98540.72;5083493;28;21361;-71
2021/04/29 23:34:32;;;;;;;11.88;7.53;;;;;;;14.06;78.84;98542.59;5083332;28;20563;-72
2021/04/29 23:36:57;;;;;;;12.82;8.00;;;;;;;14.06;79.09;98542.59;5082580;28;20045;-70
2021/04/29 23:39:23;;;;;;;14.35;7.80;;;;;;;14.07;79.05;98538.97;5083767;28;20052;-71
2021/04/29 23:41:51;;;;;;;14.13;8.07;;;;;;;14.10;79.08;98532.63;5082886;28;20125;-71
2021/04/29 23:44:18;;;;;;;15.10;9.10;;;;;;;14.17;79.12;98540.28;5082718;28;20485;-72
2021/04/29 23:46:43;;;;;;;17.52;8.90;;;;;;;14.16;79.61;98537.66;5081299;28;20131;-70
2021/04/29 23:49:09;;;;;;;13.32;8.73;;;;;;;14.16;79.40;98543.03;5082561;28;20139;-71
2021/04/29 23:51:36;;;;;;;16.23;9.15;;;;;;;14.15;79.55;98538.63;5082047;28;20514;-72
2021/04/29 23:54:02;;;;;;;12.80;9.02;;;;;;;14.13;80.12;98541.34;5083021;28;20732;-70
2021/04/29 23:56:27;;;;;;;19.00;9.85;;;;;;;14.16;79.90;98545.69;5082540;28;20131;-71
2021/04/29 23:58:53;;;;;;;18.02;10.40;;;;;;;14.17;80.02;98542.97;5083328;28;20055;-70
